Archival Weather

Chicago O'Hare International

Chicago, Illinois (KORD)

Report from: Wednesday, March 27, 2024 11:51 PM CDT
Current time: Tuesday, May 21, 2024 11:09 AM CDT

Current weather – Weather history – Daily summaries
Weather forecast

Temperature1.1°C (34.0°F)
Wind chill-1.2°C (29.8°F)
Dew point-4.4°C (24.1°F)
Winds 4 kts (2.1 m/s, 4.6 mph) Southwest (230°)
Visibility10 mi. (16.1 km)
Clouds Sky clear
Altimeter30.11 in.Hg (1020 mB)
Relative humidity67 %
Density altitude-1,865 ft. (-568 m)
Sea-level pressure102.0 kPa (1020 mB, 30.13 in.Hg)
Remarks Automated weather observing station with precipitation discriminator
Flight conditions Visual Meteorological Conditions
Raw dataKORD 280451Z 23004KT 10SM CLR 01/M04 A3011 RMK AO2 SLP203 T00111044
An error has occurred. This application may no longer respond until reloaded. Reload 🗙